sensor_id;sensor_type;location;lat;lon;timestamp;temperature;humidity
1778;DHT22;886;50.082;8.222;2022-10-04T00:00:00;10.20;99.90
1778;DHT22;886;50.082;8.222;2022-10-04T00:02:45;10.10;99.90
1778;DHT22;886;50.082;8.222;2022-10-04T00:05:15;9.80;99.90
1778;DHT22;886;50.082;8.222;2022-10-04T00:07:53;9.70;99.90
1778;DHT22;886;50.082;8.222;2022-10-04T00:10:28;9.60;99.90
1778;DHT22;886;50.082;8.222;2022-10-04T00:12:58;9.50;99.90
1778;DHT22;886;50.082;8.222;2022-10-04T00:15:28;9.70;99.90
1778;DHT22;886;50.082;8.222;2022-10-04T00:18:13;9.80;99.90
1778;DHT22;886;50.082;8.222;2022-10-04T00:20:59;9.80;99.90
1778;DHT22;886;50.082;8.222;2022-10-04T00:23:41;9.90;99.90
1778;DHT22;886;50.082;8.222;2022-10-04T00:29:33;10.00;99.90
1778;DHT22;886;50.082;8.222;2022-10-04T00:32:24;9.90;99.90
1778;DHT22;886;50.082;8.222;2022-10-04T00:34:55;9.60;99.90
1778;DHT22;886;50.082;8.222;2022-10-04T00:37:26;9.50;99.90
1778;DHT22;886;50.082;8.222;2022-10-04T00:40:02;9.50;99.90
1778;DHT22;886;50.082;8.222;2022-10-04T00:42:49;9.50;99.90
1778;DHT22;886;50.082;8.222;2022-10-04T00:45:27;9.50;99.90
1778;DHT22;886;50.082;8.222;2022-10-04T00:51:06;9.70;99.90
1778;DHT22;886;50.082;8.222;2022-10-04T00:53:56;9.80;99.90
1778;DHT22;886;50.082;8.222;2022-10-04T00:56:34;9.80;99.90
1778;DHT22;886;50.082;8.222;2022-10-04T00:59:24;9.80;99.90
1778;DHT22;886;50.082;8.222;2022-10-04T01:01:57;9.80;99.90
1778;DHT22;886;50.082;8.222;2022-10-04T01:04:38;9.90;99.90
1778;DHT22;886;50.082;8.222;2022-10-04T01:07:13;9.90;99.90
1778;DHT22;886;50.082;8.222;2022-10-04T01:09:48;9.90;99.90
1778;DHT22;886;50.082;8.222;2022-10-04T01:12:31;9.70;99.90
1778;DHT22;886;50.082;8.222;2022-10-04T01:15:05;9.40;99.90
1778;DHT22;886;50.082;8.222;2022-10-04T01:17:35;9.30;99.90
1778;DHT22;886;50.082;8.222;2022-10-04T01:20:32;9.30;99.90
1778;DHT22;886;50.082;8.222;2022-10-04T01:23:02;9.30;99.90
1778;DHT22;886;50.082;8.222;2022-10-04T01:25:43;9.40;99.90
1778;DHT22;886;50.082;8.222;2022-10-04T01:28:14;9.30;99.90
1778;DHT22;886;50.082;8.222;2022-10-04T01:30:42;9.40;99.90
1778;DHT22;886;50.082;8.222;2022-10-04T01:33:18;9.40;99.90
1778;DHT22;886;50.082;8.222;2022-10-04T01:35:54;9.40;99.90
1778;DHT22;886;50.082;8.222;2022-10-04T01:38:22;9.50;99.90
1778;DHT22;886;50.082;8.222;2022-10-04T01:41:00;9.60;99.90
1778;DHT22;886;50.082;8.222;2022-10-04T01:43:35;9.50;99.90
1778;DHT22;886;50.082;8.222;2022-10-04T01:46:08;9.50;99.90
1778;DHT22;886;50.082;8.222;2022-10-04T01:48:40;9.50;99.90
1778;DHT22;886;50.082;8.222;2022-10-04T01:51:13;9.20;99.90
1778;DHT22;886;50.082;8.222;2022-10-04T01:53:49;9.20;99.90
1778;DHT22;886;50.082;8.222;2022-10-04T01:56:22;9.20;99.90
1778;DHT22;886;50.082;8.222;2022-10-04T01:59:02;9.20;99.90
1778;DHT22;886;50.082;8.222;2022-10-04T02:01:42;9.30;99.90
1778;DHT22;886;50.082;8.222;2022-10-04T02:04:17;9.30;99.90
1778;DHT22;886;50.082;8.222;2022-10-04T02:06:50;9.40;99.90
1778;DHT22;886;50.082;8.222;2022-10-04T02:09:22;9.50;99.90
1778;DHT22;886;50.082;8.222;2022-10-04T02:11:58;9.30;99.90
1778;DHT22;886;50.082;8.222;2022-10-04T02:14:27;9.20;99.90
1778;DHT22;886;50.082;8.222;2022-10-04T02:17:02;9.10;99.90
1778;DHT22;886;50.082;8.222;2022-10-04T02:19:33;9.10;99.90
1778;DHT22;886;50.082;8.222;2022-10-04T02:22:03;9.20;99.90
1778;DHT22;886;50.082;8.222;2022-10-04T02:24:37;9.20;99.90
1778;DHT22;886;50.082;8.222;2022-10-04T02:27:07;9.30;99.90
1778;DHT22;886;50.082;8.222;2022-10-04T02:29:34;9.30;99.90
1778;DHT22;886;50.082;8.222;2022-10-04T02:32:06;9.10;99.90
1778;DHT22;886;50.082;8.222;2022-10-04T02:35:03;9.20;99.90
1778;DHT22;886;50.082;8.222;2022-10-04T02:37:33;9.20;99.90
1778;DHT22;886;50.082;8.222;2022-10-04T02:40:08;9.10;99.90
1778;DHT22;886;50.082;8.222;2022-10-04T02:42:46;8.90;99.90
1778;DHT22;886;50.082;8.222;2022-10-04T02:45:21;9.10;99.90
1778;DHT22;886;50.082;8.222;2022-10-04T02:47:55;9.00;99.90
1778;DHT22;886;50.082;8.222;2022-10-04T02:50:28;8.90;99.90
1778;DHT22;886;50.082;8.222;2022-10-04T02:53:00;8.90;99.90
1778;DHT22;886;50.082;8.222;2022-10-04T02:55:35;9.00;99.90
1778;DHT22;886;50.082;8.222;2022-10-04T02:58:08;9.10;99.90
1778;DHT22;886;50.082;8.222;2022-10-04T03:00:46;9.10;99.90
1778;DHT22;886;50.082;8.222;2022-10-04T03:03:22;9.10;99.90
1778;DHT22;886;50.082;8.222;2022-10-04T03:06:00;8.90;99.90
1778;DHT22;886;50.082;8.222;2022-10-04T03:08:32;8.90;99.90
1778;DHT22;886;50.082;8.222;2022-10-04T03:11:05;8.70;99.90
1778;DHT22;886;50.082;8.222;2022-10-04T03:13:33;8.80;99.90
1778;DHT22;886;50.082;8.222;2022-10-04T03:16:03;8.80;99.90
1778;DHT22;886;50.082;8.222;2022-10-04T03:18:31;9.00;99.90
1778;DHT22;886;50.082;8.222;2022-10-04T03:21:01;9.00;99.90
1778;DHT22;886;50.082;8.222;2022-10-04T03:23:31;9.10;99.90
1778;DHT22;886;50.082;8.222;2022-10-04T03:26:06;9.20;99.90
1778;DHT22;886;50.082;8.222;2022-10-04T03:28:46;9.20;99.90
1778;DHT22;886;50.082;8.222;2022-10-04T03:31:14;9.10;99.90
1778;DHT22;886;50.082;8.222;2022-10-04T03:33:42;9.00;99.90
1778;DHT22;886;50.082;8.222;2022-10-04T03:36:18;8.90;99.90
1778;DHT22;886;50.082;8.222;2022-10-04T03:38:46;8.90;99.90
1778;DHT22;886;50.082;8.222;2022-10-04T03:41:15;8.80;99.90
1778;DHT22;886;50.082;8.222;2022-10-04T03:43:45;9.00;99.90
1778;DHT22;886;50.082;8.222;2022-10-04T03:46:19;9.10;99.90
1778;DHT22;886;50.082;8.222;2022-10-04T03:48:50;9.00;99.90
1778;DHT22;886;50.082;8.222;2022-10-04T03:51:21;8.80;99.90
1778;DHT22;886;50.082;8.222;2022-10-04T03:53:51;8.90;99.90
1778;DHT22;886;50.082;8.222;2022-10-04T03:56:35;8.90;99.90
1778;DHT22;886;50.082;8.222;2022-10-04T03:59:04;9.00;99.90
1778;DHT22;886;50.082;8.222;2022-10-04T04:01:38;9.00;99.90
1778;DHT22;886;50.082;8.222;2022-10-04T04:04:19;8.90;99.90
1778;DHT22;886;50.082;8.222;2022-10-04T04:06:58;8.90;99.90
1778;DHT22;886;50.082;8.222;2022-10-04T04:09:37;8.70;99.90
1778;DHT22;886;50.082;8.222;2022-10-04T04:12:14;8.80;99.90
1778;DHT22;886;50.082;8.222;2022-10-04T04:14:43;8.80;99.90
1778;DHT22;886;50.082;8.222;2022-10-04T04:17:35;8.80;99.90
1778;DHT22;886;50.082;8.222;2022-10-04T04:20:23;8.80;99.90
1778;DHT22;886;50.082;8.222;2022-10-04T04:22:57;8.80;99.90
1778;DHT22;886;50.082;8.222;2022-10-04T04:25:33;8.80;99.90
1778;DHT22;886;50.082;8.222;2022-10-04T04:28:11;8.80;99.90
1778;DHT22;886;50.082;8.222;2022-10-04T04:30:47;8.80;99.90
1778;DHT22;886;50.082;8.222;2022-10-04T04:33:22;8.70;99.90
1778;DHT22;886;50.082;8.222;2022-10-04T04:36:02;8.70;99.90
1778;DHT22;886;50.082;8.222;2022-10-04T04:38:33;8.80;99.90
1778;DHT22;886;50.082;8.222;2022-10-04T04:41:09;8.90;99.90
1778;DHT22;886;50.082;8.222;2022-10-04T04:43:43;8.80;99.90
1778;DHT22;886;50.082;8.222;2022-10-04T04:46:16;8.80;99.90
1778;DHT22;886;50.082;8.222;2022-10-04T04:48:58;8.90;99.90
1778;DHT22;886;50.082;8.222;2022-10-04T04:51:30;8.90;99.90
1778;DHT22;886;50.082;8.222;2022-10-04T04:54:00;8.80;99.90
1778;DHT22;886;50.082;8.222;2022-10-04T04:56:34;8.90;99.90
1778;DHT22;886;50.082;8.222;2022-10-04T04:59:10;8.80;99.90
1778;DHT22;886;50.082;8.222;2022-10-04T05:01:48;8.70;99.90
1778;DHT22;886;50.082;8.222;2022-10-04T05:04:23;8.60;99.90
1778;DHT22;886;50.082;8.222;2022-10-04T05:07:00;8.60;99.90
1778;DHT22;886;50.082;8.222;2022-10-04T05:09:29;8.70;99.90
1778;DHT22;886;50.082;8.222;2022-10-04T05:12:05;8.70;99.90
1778;DHT22;886;50.082;8.222;2022-10-04T05:14:43;8.70;99.90
1778;DHT22;886;50.082;8.222;2022-10-04T05:17:24;8.70;99.90
1778;DHT22;886;50.082;8.222;2022-10-04T05:19:57;8.70;99.90
1778;DHT22;886;50.082;8.222;2022-10-04T05:22:26;8.80;99.90
1778;DHT22;886;50.082;8.222;2022-10-04T05:24:56;8.80;99.90
1778;DHT22;886;50.082;8.222;2022-10-04T05:27:29;8.90;99.90
1778;DHT22;886;50.082;8.222;2022-10-04T05:30:04;8.90;99.90
1778;DHT22;886;50.082;8.222;2022-10-04T05:32:39;8.90;99.90
1778;DHT22;886;50.082;8.222;2022-10-04T05:35:20;8.90;99.90
1778;DHT22;886;50.082;8.222;2022-10-04T05:38:01;8.90;99.90
1778;DHT22;886;50.082;8.222;2022-10-04T05:40:42;8.90;99.90
1778;DHT22;886;50.082;8.222;2022-10-04T05:43:28;8.90;99.90
1778;DHT22;886;50.082;8.222;2022-10-04T05:46:14;9.00;99.90
1778;DHT22;886;50.082;8.222;2022-10-04T05:48:46;9.00;99.90
1778;DHT22;886;50.082;8.222;2022-10-04T05:51:18;9.00;99.90
1778;DHT22;886;50.082;8.222;2022-10-04T05:53:47;9.10;99.90
1778;DHT22;886;50.082;8.222;2022-10-04T05:59:27;9.00;99.90
1778;DHT22;886;50.082;8.222;2022-10-04T06:02:22;9.00;99.90
1778;DHT22;886;50.082;8.222;2022-10-04T06:05:07;9.00;99.90
1778;DHT22;886;50.082;8.222;2022-10-04T06:07:40;9.10;99.90
1778;DHT22;886;50.082;8.222;2022-10-04T06:10:34;9.00;99.90
1778;DHT22;886;50.082;8.222;2022-10-04T06:13:58;9.00;99.90
1778;DHT22;886;50.082;8.222;2022-10-04T06:16:45;9.20;99.90
1778;DHT22;886;50.082;8.222;2022-10-04T06:19:33;9.30;99.90
1778;DHT22;886;50.082;8.222;2022-10-04T06:22:15;9.40;99.90
1778;DHT22;886;50.082;8.222;2022-10-04T06:24:46;9.30;99.90
1778;DHT22;886;50.082;8.222;2022-10-04T06:27:18;9.30;99.90
1778;DHT22;886;50.082;8.222;2022-10-04T06:29:51;9.40;99.90
1778;DHT22;886;50.082;8.222;2022-10-04T06:32:50;9.40;99.90
1778;DHT22;886;50.082;8.222;2022-10-04T06:38:57;9.30;99.90
1778;DHT22;886;50.082;8.222;2022-10-04T06:44:59;9.40;99.90
1778;DHT22;886;50.082;8.222;2022-10-04T06:48:08;9.50;99.90
1778;DHT22;886;50.082;8.222;2022-10-04T06:50:48;9.50;99.90
1778;DHT22;886;50.082;8.222;2022-10-04T06:53:36;9.60;99.90
1778;DHT22;886;50.082;8.222;2022-10-04T06:57:07;9.60;99.90
1778;DHT22;886;50.082;8.222;2022-10-04T07:00:03;9.60;99.90
1778;DHT22;886;50.082;8.222;2022-10-04T07:02:41;9.50;99.90
1778;DHT22;886;50.082;8.222;2022-10-04T07:05:18;9.70;99.90
1778;DHT22;886;50.082;8.222;2022-10-04T07:08:08;9.90;99.90
1778;DHT22;886;50.082;8.222;2022-10-04T07:10:48;9.90;99.90
1778;DHT22;886;50.082;8.222;2022-10-04T07:13:39;10.00;99.90
1778;DHT22;886;50.082;8.222;2022-10-04T07:16:24;10.10;99.90
1778;DHT22;886;50.082;8.222;2022-10-04T07:19:14;10.20;99.90
1778;DHT22;886;50.082;8.222;2022-10-04T07:21:56;10.30;99.90
1778;DHT22;886;50.082;8.222;2022-10-04T07:24:44;10.40;99.90
1778;DHT22;886;50.082;8.222;2022-10-04T07:27:30;10.40;99.90
1778;DHT22;886;50.082;8.222;2022-10-04T07:30:11;10.40;99.90
1778;DHT22;886;50.082;8.222;2022-10-04T07:32:43;10.50;99.90
1778;DHT22;886;50.082;8.222;2022-10-04T07:35:25;10.50;99.90
1778;DHT22;886;50.082;8.222;2022-10-04T07:38:02;10.50;99.90
1778;DHT22;886;50.082;8.222;2022-10-04T07:40:39;10.60;99.90
1778;DHT22;886;50.082;8.222;2022-10-04T07:43:12;10.60;99.90
1778;DHT22;886;50.082;8.222;2022-10-04T07:45:48;10.60;99.90
1778;DHT22;886;50.082;8.222;2022-10-04T07:48:19;10.70;99.90
1778;DHT22;886;50.082;8.222;2022-10-04T07:51:00;10.70;99.90
1778;DHT22;886;50.082;8.222;2022-10-04T07:53:36;10.70;99.90
1778;DHT22;886;50.082;8.222;2022-10-04T07:56:09;10.70;99.90
1778;DHT22;886;50.082;8.222;2022-10-04T07:58:48;10.70;99.90
1778;DHT22;886;50.082;8.222;2022-10-04T08:01:36;10.80;99.90
1778;DHT22;886;50.082;8.222;2022-10-04T08:04:21;10.90;99.90
1778;DHT22;886;50.082;8.222;2022-10-04T08:07:01;11.00;99.90
1778;DHT22;886;50.082;8.222;2022-10-04T08:09:39;11.00;99.90
1778;DHT22;886;50.082;8.222;2022-10-04T08:12:25;11.10;99.90
1778;DHT22;886;50.082;8.222;2022-10-04T08:15:23;11.10;99.90
1778;DHT22;886;50.082;8.222;2022-10-04T08:18:02;11.10;99.90
1778;DHT22;886;50.082;8.222;2022-10-04T08:20:40;11.10;99.90
1778;DHT22;886;50.082;8.222;2022-10-04T08:23:32;11.10;99.90
1778;DHT22;886;50.082;8.222;2022-10-04T08:26:23;11.20;99.90
1778;DHT22;886;50.082;8.222;2022-10-04T08:29:19;11.20;99.90
1778;DHT22;886;50.082;8.222;2022-10-04T08:32:32;11.30;99.90
1778;DHT22;886;50.082;8.222;2022-10-04T08:35:46;11.30;99.90
1778;DHT22;886;50.082;8.222;2022-10-04T08:38:41;11.40;99.90
1778;DHT22;886;50.082;8.222;2022-10-04T08:51:51;11.80;99.90
1778;DHT22;886;50.082;8.222;2022-10-04T08:54:59;11.80;99.90
1778;DHT22;886;50.082;8.222;2022-10-04T08:57:55;11.90;99.90
1778;DHT22;886;50.082;8.222;2022-10-04T09:00:43;11.90;99.90
1778;DHT22;886;50.082;8.222;2022-10-04T09:07:02;12.10;99.90
1778;DHT22;886;50.082;8.222;2022-10-04T09:10:13;12.10;99.90
1778;DHT22;886;50.082;8.222;2022-10-04T09:16:07;12.20;99.90
1778;DHT22;886;50.082;8.222;2022-10-04T09:18:50;12.20;99.90
1778;DHT22;886;50.082;8.222;2022-10-04T09:21:27;12.30;99.90
1778;DHT22;886;50.082;8.222;2022-10-04T09:24:31;12.30;99.90
1778;DHT22;886;50.082;8.222;2022-10-04T09:27:29;12.40;99.90
1778;DHT22;886;50.082;8.222;2022-10-04T09:30:21;12.50;99.90
1778;DHT22;886;50.082;8.222;2022-10-04T09:33:13;12.60;99.90
1778;DHT22;886;50.082;8.222;2022-10-04T09:36:01;12.70;99.90
1778;DHT22;886;50.082;8.222;2022-10-04T09:39:01;12.70;99.90
1778;DHT22;886;50.082;8.222;2022-10-04T09:42:08;12.80;99.90
1778;DHT22;886;50.082;8.222;2022-10-04T09:44:52;12.80;99.90
1778;DHT22;886;50.082;8.222;2022-10-04T09:47:43;12.90;99.90
1778;DHT22;886;50.082;8.222;2022-10-04T09:50:39;13.00;99.90
1778;DHT22;886;50.082;8.222;2022-10-04T09:53:39;13.00;99.90
1778;DHT22;886;50.082;8.222;2022-10-04T09:56:36;13.00;99.90
1778;DHT22;886;50.082;8.222;2022-10-04T09:59:26;13.20;99.90
1778;DHT22;886;50.082;8.222;2022-10-04T10:05:28;13.40;99.90
1778;DHT22;886;50.082;8.222;2022-10-04T10:08:12;13.60;99.90
1778;DHT22;886;50.082;8.222;2022-10-04T10:10:54;13.60;99.90
1778;DHT22;886;50.082;8.222;2022-10-04T10:14:12;13.60;99.90
1778;DHT22;886;50.082;8.222;2022-10-04T10:16:55;13.60;99.90
1778;DHT22;886;50.082;8.222;2022-10-04T10:19:48;13.60;99.90
1778;DHT22;886;50.082;8.222;2022-10-04T10:22:36;13.60;99.90
1778;DHT22;886;50.082;8.222;2022-10-04T10:25:29;13.70;99.90
1778;DHT22;886;50.082;8.222;2022-10-04T10:28:28;13.70;99.90
1778;DHT22;886;50.082;8.222;2022-10-04T10:31:20;13.80;99.90
1778;DHT22;886;50.082;8.222;2022-10-04T10:34:26;13.90;99.90
1778;DHT22;886;50.082;8.222;2022-10-04T10:37:09;14.00;99.90
1778;DHT22;886;50.082;8.222;2022-10-04T10:40:15;14.00;99.90
1778;DHT22;886;50.082;8.222;2022-10-04T10:43:05;14.10;99.90
1778;DHT22;886;50.082;8.222;2022-10-04T10:46:03;14.20;99.90
1778;DHT22;886;50.082;8.222;2022-10-04T10:49:01;14.20;99.90
1778;DHT22;886;50.082;8.222;2022-10-04T10:52:03;14.20;99.90
1778;DHT22;886;50.082;8.222;2022-10-04T10:55:12;14.30;99.90
1778;DHT22;886;50.082;8.222;2022-10-04T10:58:23;14.20;99.90
1778;DHT22;886;50.082;8.222;2022-10-04T11:01:36;14.30;99.90
1778;DHT22;886;50.082;8.222;2022-10-04T11:04:30;14.30;99.90
1778;DHT22;886;50.082;8.222;2022-10-04T11:07:42;14.40;99.90
1778;DHT22;886;50.082;8.222;2022-10-04T11:10:29;14.40;99.90
1778;DHT22;886;50.082;8.222;2022-10-04T11:13:45;14.50;99.90
1778;DHT22;886;50.082;8.222;2022-10-04T11:17:00;14.60;99.90
1778;DHT22;886;50.082;8.222;2022-10-04T11:20:13;14.60;99.90
1778;DHT22;886;50.082;8.222;2022-10-04T11:23:28;14.60;99.90
1778;DHT22;886;50.082;8.222;2022-10-04T11:29:27;14.70;99.90
1778;DHT22;886;50.082;8.222;2022-10-04T11:35:57;14.80;99.90
1778;DHT22;886;50.082;8.222;2022-10-04T11:39:01;14.80;99.90
1778;DHT22;886;50.082;8.222;2022-10-04T11:41:46;14.80;99.90
1778;DHT22;886;50.082;8.222;2022-10-04T11:44:31;14.80;99.90
1778;DHT22;886;50.082;8.222;2022-10-04T11:47:17;14.80;99.90
1778;DHT22;886;50.082;8.222;2022-10-04T11:50:16;14.90;99.90
1778;DHT22;886;50.082;8.222;2022-10-04T11:59:33;15.00;99.90
1778;DHT22;886;50.082;8.222;2022-10-04T12:02:24;14.90;99.90
1778;DHT22;886;50.082;8.222;2022-10-04T12:05:32;14.90;99.90
1778;DHT22;886;50.082;8.222;2022-10-04T12:08:22;14.90;99.90
1778;DHT22;886;50.082;8.222;2022-10-04T12:11:22;15.00;99.90
1778;DHT22;886;50.082;8.222;2022-10-04T12:14:25;15.00;99.90
1778;DHT22;886;50.082;8.222;2022-10-04T12:17:34;15.00;99.90
1778;DHT22;886;50.082;8.222;2022-10-04T12:20:25;15.10;99.90
1778;DHT22;886;50.082;8.222;2022-10-04T12:23:25;15.10;99.90
1778;DHT22;886;50.082;8.222;2022-10-04T12:26:18;15.10;99.90
1778;DHT22;886;50.082;8.222;2022-10-04T12:29:33;15.10;99.90
1778;DHT22;886;50.082;8.222;2022-10-04T12:32:29;15.20;99.90
1778;DHT22;886;50.082;8.222;2022-10-04T12:35:04;15.30;99.90
1778;DHT22;886;50.082;8.222;2022-10-04T12:38:05;15.30;99.90
1778;DHT22;886;50.082;8.222;2022-10-04T12:40:42;15.30;99.90
1778;DHT22;886;50.082;8.222;2022-10-04T12:43:19;15.30;99.90
1778;DHT22;886;50.082;8.222;2022-10-04T12:45:58;15.30;99.90
1778;DHT22;886;50.082;8.222;2022-10-04T12:48:49;15.30;99.90
1778;DHT22;886;50.082;8.222;2022-10-04T12:51:42;15.40;99.90
1778;DHT22;886;50.082;8.222;2022-10-04T12:54:31;15.40;99.90
1778;DHT22;886;50.082;8.222;2022-10-04T13:00:13;15.50;99.90
1778;DHT22;886;50.082;8.222;2022-10-04T13:02:57;15.60;99.90
1778;DHT22;886;50.082;8.222;2022-10-04T13:05:36;15.60;99.90
1778;DHT22;886;50.082;8.222;2022-10-04T13:08:21;15.50;99.90
1778;DHT22;886;50.082;8.222;2022-10-04T13:11:16;15.50;99.90
1778;DHT22;886;50.082;8.222;2022-10-04T13:14:16;15.60;99.90
1778;DHT22;886;50.082;8.222;2022-10-04T13:16:55;15.60;99.90
1778;DHT22;886;50.082;8.222;2022-10-04T13:19:52;15.70;99.90
1778;DHT22;886;50.082;8.222;2022-10-04T13:22:44;15.80;99.90
1778;DHT22;886;50.082;8.222;2022-10-04T13:28:23;15.80;99.90
1778;DHT22;886;50.082;8.222;2022-10-04T13:30:58;15.90;99.90
1778;DHT22;886;50.082;8.222;2022-10-04T13:33:35;15.90;99.90
1778;DHT22;886;50.082;8.222;2022-10-04T13:36:09;16.00;99.90
1778;DHT22;886;50.082;8.222;2022-10-04T13:38:53;16.00;99.90
1778;DHT22;886;50.082;8.222;2022-10-04T13:41:55;16.00;99.90
1778;DHT22;886;50.082;8.222;2022-10-04T13:44:54;16.00;99.90
1778;DHT22;886;50.082;8.222;2022-10-04T13:47:46;16.00;99.90
1778;DHT22;886;50.082;8.222;2022-10-04T13:50:30;16.00;99.90
1778;DHT22;886;50.082;8.222;2022-10-04T13:53:15;16.00;99.90
1778;DHT22;886;50.082;8.222;2022-10-04T13:56:15;16.00;99.90
1778;DHT22;886;50.082;8.222;2022-10-04T13:59:10;16.10;99.90
1778;DHT22;886;50.082;8.222;2022-10-04T14:11:53;16.10;99.90
1778;DHT22;886;50.082;8.222;2022-10-04T14:18:18;16.00;99.90
1778;DHT22;886;50.082;8.222;2022-10-04T14:24:30;16.30;99.90
1778;DHT22;886;50.082;8.222;2022-10-04T14:27:35;16.20;99.90
1778;DHT22;886;50.082;8.222;2022-10-04T14:30:16;16.20;99.90
1778;DHT22;886;50.082;8.222;2022-10-04T14:36:26;16.20;99.90
1778;DHT22;886;50.082;8.222;2022-10-04T14:39:17;16.20;99.90
1778;DHT22;886;50.082;8.222;2022-10-04T14:45:34;16.30;99.90
1778;DHT22;886;50.082;8.222;2022-10-04T14:48:24;16.40;99.90
1778;DHT22;886;50.082;8.222;2022-10-04T14:51:22;16.40;99.90
1778;DHT22;886;50.082;8.222;2022-10-04T14:53:59;16.30;99.90
1778;DHT22;886;50.082;8.222;2022-10-04T14:56:49;16.40;99.90
1778;DHT22;886;50.082;8.222;2022-10-04T14:59:52;16.30;99.90
1778;DHT22;886;50.082;8.222;2022-10-04T15:02:53;16.40;99.90
1778;DHT22;886;50.082;8.222;2022-10-04T15:05:41;16.40;99.90
1778;DHT22;886;50.082;8.222;2022-10-04T15:08:36;16.30;99.90
1778;DHT22;886;50.082;8.222;2022-10-04T15:11:18;16.30;99.90
1778;DHT22;886;50.082;8.222;2022-10-04T15:14:03;16.40;99.90
1778;DHT22;886;50.082;8.222;2022-10-04T15:17:01;16.40;99.90
1778;DHT22;886;50.082;8.222;2022-10-04T15:19:32;16.40;99.90
1778;DHT22;886;50.082;8.222;2022-10-04T15:22:14;16.40;99.90
1778;DHT22;886;50.082;8.222;2022-10-04T15:24:50;16.40;99.90
1778;DHT22;886;50.082;8.222;2022-10-04T15:27:43;16.40;99.90
1778;DHT22;886;50.082;8.222;2022-10-04T15:30:23;16.40;99.90
1778;DHT22;886;50.082;8.222;2022-10-04T15:33:15;16.40;99.90
1778;DHT22;886;50.082;8.222;2022-10-04T15:36:02;16.40;99.90
1778;DHT22;886;50.082;8.222;2022-10-04T15:38:46;16.30;99.90
1778;DHT22;886;50.082;8.222;2022-10-04T15:41:18;16.30;99.90
1778;DHT22;886;50.082;8.222;2022-10-04T15:47:08;16.30;99.90
1778;DHT22;886;50.082;8.222;2022-10-04T15:49:52;16.30;99.90
1778;DHT22;886;50.082;8.222;2022-10-04T15:52:52;16.30;99.90
1778;DHT22;886;50.082;8.222;2022-10-04T15:55:53;16.30;99.90
1778;DHT22;886;50.082;8.222;2022-10-04T16:01:41;16.30;99.90
1778;DHT22;886;50.082;8.222;2022-10-04T16:04:37;16.30;99.90
1778;DHT22;886;50.082;8.222;2022-10-04T16:07:22;16.30;99.90
1778;DHT22;886;50.082;8.222;2022-10-04T16:10:05;16.20;99.90
1778;DHT22;886;50.082;8.222;2022-10-04T16:13:00;16.20;99.90
1778;DHT22;886;50.082;8.222;2022-10-04T16:16:19;16.20;99.90
1778;DHT22;886;50.082;8.222;2022-10-04T16:19:05;16.20;99.90
1778;DHT22;886;50.082;8.222;2022-10-04T16:21:48;16.30;99.90
1778;DHT22;886;50.082;8.222;2022-10-04T16:24:40;16.20;99.90
1778;DHT22;886;50.082;8.222;2022-10-04T16:30:36;16.10;99.90
1778;DHT22;886;50.082;8.222;2022-10-04T16:33:25;16.10;99.90
1778;DHT22;886;50.082;8.222;2022-10-04T16:36:12;16.00;99.90
1778;DHT22;886;50.082;8.222;2022-10-04T16:38:45;16.00;99.90
1778;DHT22;886;50.082;8.222;2022-10-04T16:41:39;15.90;99.90
1778;DHT22;886;50.082;8.222;2022-10-04T16:44:22;15.90;99.90
1778;DHT22;886;50.082;8.222;2022-10-04T16:46:58;15.90;99.90
1778;DHT22;886;50.082;8.222;2022-10-04T16:49:32;15.80;99.90
1778;DHT22;886;50.082;8.222;2022-10-04T16:55:48;15.60;99.90
1778;DHT22;886;50.082;8.222;2022-10-04T17:02:04;15.30;99.90
1778;DHT22;886;50.082;8.222;2022-10-04T17:05:01;15.30;99.90
1778;DHT22;886;50.082;8.222;2022-10-04T17:07:56;15.10;99.90
1778;DHT22;886;50.082;8.222;2022-10-04T17:10:36;15.10;99.90
1778;DHT22;886;50.082;8.222;2022-10-04T17:13:19;15.10;99.90
1778;DHT22;886;50.082;8.222;2022-10-04T17:15:58;15.00;99.90
1778;DHT22;886;50.082;8.222;2022-10-04T17:18:34;14.90;99.90
1778;DHT22;886;50.082;8.222;2022-10-04T17:21:13;14.80;99.90
1778;DHT22;886;50.082;8.222;2022-10-04T17:24:09;14.70;99.90
1778;DHT22;886;50.082;8.222;2022-10-04T17:26:52;14.70;99.90
1778;DHT22;886;50.082;8.222;2022-10-04T17:29:47;14.60;99.90
1778;DHT22;886;50.082;8.222;2022-10-04T17:32:25;14.50;99.90
1778;DHT22;886;50.082;8.222;2022-10-04T17:35:10;14.40;99.90
1778;DHT22;886;50.082;8.222;2022-10-04T17:37:47;14.40;99.90
1778;DHT22;886;50.082;8.222;2022-10-04T17:40:33;14.40;99.90
1778;DHT22;886;50.082;8.222;2022-10-04T17:43:09;14.40;99.90
1778;DHT22;886;50.082;8.222;2022-10-04T17:45:56;14.50;99.90
1778;DHT22;886;50.082;8.222;2022-10-04T17:48:30;14.30;99.90
1778;DHT22;886;50.082;8.222;2022-10-04T17:51:37;14.30;99.90
1778;DHT22;886;50.082;8.222;2022-10-04T17:54:28;14.30;99.90
1778;DHT22;886;50.082;8.222;2022-10-04T17:57:22;14.30;99.90
1778;DHT22;886;50.082;8.222;2022-10-04T17:59:57;14.10;99.90
1778;DHT22;886;50.082;8.222;2022-10-04T18:03:03;14.00;99.90
1778;DHT22;886;50.082;8.222;2022-10-04T18:05:45;14.00;99.90
1778;DHT22;886;50.082;8.222;2022-10-04T18:08:19;14.00;99.90
1778;DHT22;886;50.082;8.222;2022-10-04T18:10:56;14.00;99.90
1778;DHT22;886;50.082;8.222;2022-10-04T18:13:30;13.90;99.90
1778;DHT22;886;50.082;8.222;2022-10-04T18:16:06;14.00;99.90
1778;DHT22;886;50.082;8.222;2022-10-04T18:18:40;14.00;99.90
1778;DHT22;886;50.082;8.222;2022-10-04T18:21:20;14.00;99.90
1778;DHT22;886;50.082;8.222;2022-10-04T18:23:54;13.80;99.90
1778;DHT22;886;50.082;8.222;2022-10-04T18:26:27;13.80;99.90
1778;DHT22;886;50.082;8.222;2022-10-04T18:28:58;13.80;99.90
1778;DHT22;886;50.082;8.222;2022-10-04T18:31:33;13.70;99.90
1778;DHT22;886;50.082;8.222;2022-10-04T18:34:15;13.60;99.90
1778;DHT22;886;50.082;8.222;2022-10-04T18:36:52;13.60;99.90
1778;DHT22;886;50.082;8.222;2022-10-04T18:39:22;13.60;99.90
1778;DHT22;886;50.082;8.222;2022-10-04T18:41:58;13.50;99.90
1778;DHT22;886;50.082;8.222;2022-10-04T18:44:28;13.40;99.90
1778;DHT22;886;50.082;8.222;2022-10-04T18:47:15;13.50;99.90
1778;DHT22;886;50.082;8.222;2022-10-04T18:49:49;13.40;99.90
1778;DHT22;886;50.082;8.222;2022-10-04T18:52:28;13.30;99.90
1778;DHT22;886;50.082;8.222;2022-10-04T18:55:14;13.30;99.90
1778;DHT22;886;50.082;8.222;2022-10-04T18:57:55;13.40;99.90
1778;DHT22;886;50.082;8.222;2022-10-04T19:00:47;13.40;99.90
1778;DHT22;886;50.082;8.222;2022-10-04T19:03:41;13.30;99.90
1778;DHT22;886;50.082;8.222;2022-10-04T19:06:15;13.30;99.90
1778;DHT22;886;50.082;8.222;2022-10-04T19:08:52;13.30;99.90
1778;DHT22;886;50.082;8.222;2022-10-04T19:11:28;13.20;99.90
1778;DHT22;886;50.082;8.222;2022-10-04T19:14:06;13.10;99.90
1778;DHT22;886;50.082;8.222;2022-10-04T19:16:42;13.10;99.90
1778;DHT22;886;50.082;8.222;2022-10-04T19:19:38;13.10;99.90
1778;DHT22;886;50.082;8.222;2022-10-04T19:22:18;13.10;99.90
1778;DHT22;886;50.082;8.222;2022-10-04T19:25:10;13.20;99.90
1778;DHT22;886;50.082;8.222;2022-10-04T19:28:02;13.10;99.90
1778;DHT22;886;50.082;8.222;2022-10-04T19:30:43;13.20;99.90
1778;DHT22;886;50.082;8.222;2022-10-04T19:33:18;13.10;99.90
1778;DHT22;886;50.082;8.222;2022-10-04T19:36:12;12.90;99.90
1778;DHT22;886;50.082;8.222;2022-10-04T19:38:54;12.90;99.90
1778;DHT22;886;50.082;8.222;2022-10-04T19:41:40;13.00;99.90
1778;DHT22;886;50.082;8.222;2022-10-04T19:44:23;13.00;99.90
1778;DHT22;886;50.082;8.222;2022-10-04T19:46:59;13.00;99.90
1778;DHT22;886;50.082;8.222;2022-10-04T19:49:38;12.90;99.90